createdAt,value
2022-11-28T00:01:05.604Z,91940.06
2022-11-28T00:03:32.335Z,91943.03
2022-11-28T00:06:04.307Z,91937.34
2022-11-28T00:08:31.740Z,91936.28
2022-11-28T00:10:58.428Z,91927.97
2022-11-28T00:13:25.050Z,91935.66
2022-11-28T00:15:58.985Z,91930.56
2022-11-28T00:18:25.545Z,91927.72
2022-11-28T00:20:52.161Z,91936.94
2022-11-28T00:23:18.813Z,91940.06
2022-11-28T00:25:45.474Z,91929.81
2022-11-28T00:28:12.184Z,91930.84
2022-11-28T00:30:38.838Z,91930.59
2022-11-28T00:33:05.527Z,91938.19
2022-11-28T00:35:32.130Z,91936.88
2022-11-28T00:37:58.717Z,91931.63
2022-11-28T00:40:25.317Z,91921.59
2022-11-28T00:42:51.947Z,91929.41
2022-11-28T00:45:18.684Z,91929.28
2022-11-28T00:47:46.753Z,91925.56
2022-11-28T00:50:13.445Z,91936.16
2022-11-28T00:52:40.166Z,91939.38
2022-11-28T00:55:07.053Z,91928.31
2022-11-28T00:57:34.420Z,91931.97
2022-11-28T01:00:01.015Z,91930.16
2022-11-28T01:02:28.037Z,91936.53
2022-11-28T01:04:54.821Z,91930.25
2022-11-28T01:07:21.596Z,91919.47
2022-11-28T01:09:48.243Z,91926.16
2022-11-28T01:12:14.905Z,91922.06
2022-11-28T01:14:41.835Z,91930.91
2022-11-28T01:17:09.148Z,91935.25
2022-11-28T01:19:35.828Z,91929.09
2022-11-28T01:22:02.516Z,91922.06
2022-11-28T01:24:29.236Z,91926.97
2022-11-28T01:26:55.823Z,91920.66
2022-11-28T01:29:22.744Z,91910.72
2022-11-28T01:31:49.413Z,91917.00
2022-11-28T01:34:16.481Z,91911.69
2022-11-28T01:36:43.226Z,91908.31
2022-11-28T01:39:11.021Z,91915.00
2022-11-28T01:41:37.670Z,91910.41
2022-11-28T01:44:07.510Z,91910.81
2022-11-28T01:46:34.875Z,91907.69
2022-11-28T01:49:23.721Z,91907.09
2022-11-28T01:51:56.010Z,91902.88
2022-11-28T01:54:22.957Z,91905.53
2022-11-28T01:56:52.202Z,91903.13
2022-11-28T01:59:18.971Z,91907.44
2022-11-28T02:01:45.633Z,91902.53
2022-11-28T02:04:13.807Z,91895.69
2022-11-28T02:06:41.305Z,91896.81
2022-11-28T02:09:15.168Z,91898.38
2022-11-28T02:12:03.525Z,91901.16
2022-11-28T02:15:02.612Z,91892.94
2022-11-28T02:17:47.681Z,91895.06
2022-11-28T02:20:47.969Z,91898.81
2022-11-28T02:23:44.372Z,91893.13
2022-11-28T02:26:40.252Z,91895.59
2022-11-28T02:29:36.127Z,91888.00
2022-11-28T02:32:33.463Z,91888.59
2022-11-28T02:35:18.397Z,91886.00
2022-11-28T02:38:08.145Z,91880.63
2022-11-28T02:40:47.909Z,91880.06
2022-11-28T02:43:20.998Z,91888.72
2022-11-28T02:46:06.481Z,91886.38
2022-11-28T02:48:50.711Z,91885.25
2022-11-28T02:51:26.496Z,91884.34
2022-11-28T02:53:53.409Z,91884.06
2022-11-28T02:56:20.082Z,91881.19
2022-11-28T02:58:46.698Z,91886.97
2022-11-28T03:01:21.469Z,91889.09
2022-11-28T03:04:17.233Z,91889.31
2022-11-28T03:06:48.532Z,91892.13
2022-11-28T03:10:07.607Z,91889.03
2022-11-28T03:12:52.251Z,91898.31
2022-11-28T03:15:21.883Z,91893.63
2022-11-28T03:18:11.819Z,91901.59
2022-11-28T03:20:46.554Z,91894.47
2022-11-28T03:23:36.757Z,91902.78
2022-11-28T03:26:12.197Z,91903.06
2022-11-28T03:28:43.555Z,91905.53
2022-11-28T03:31:26.059Z,91898.22
2022-11-28T03:33:54.881Z,91909.66
2022-11-28T03:36:43.025Z,91911.88
2022-11-28T03:39:12.045Z,91903.97
2022-11-28T03:41:49.565Z,91904.94
2022-11-28T03:44:23.157Z,91911.31
2022-11-28T03:46:49.964Z,91905.91
2022-11-28T03:49:20.360Z,91903.91
2022-11-28T03:51:50.307Z,91905.38
2022-11-28T03:54:23.103Z,91901.72
2022-11-28T03:57:06.989Z,91905.31
2022-11-28T03:59:44.950Z,91904.41
2022-11-28T04:02:11.523Z,91910.63
2022-11-28T04:04:44.266Z,91916.41
2022-11-28T04:07:10.942Z,91909.94
2022-11-28T04:09:45.209Z,91915.72
2022-11-28T04:12:33.880Z,91913.75
2022-11-28T04:15:02.390Z,91915.38
2022-11-28T04:17:34.384Z,91914.50
2022-11-28T04:20:23.745Z,91915.66
2022-11-28T04:22:55.711Z,91914.59
2022-11-28T04:25:22.904Z,91916.66
2022-11-28T04:27:52.966Z,91919.00
2022-11-28T04:30:19.683Z,91922.00
2022-11-28T04:32:48.604Z,91926.59
2022-11-28T04:35:35.528Z,91926.19
2022-11-28T04:38:02.157Z,91923.94
2022-11-28T04:40:30.518Z,91932.03
2022-11-28T04:43:06.630Z,91925.75
2022-11-28T04:45:39.087Z,91927.63
2022-11-28T04:48:05.903Z,91924.63
2022-11-28T04:50:38.481Z,91924.72
2022-11-28T04:53:09.461Z,91918.69
2022-11-28T04:55:41.140Z,91918.22
2022-11-28T04:58:21.923Z,91908.69
2022-11-28T05:00:49.083Z,91925.31
2022-11-28T05:03:15.810Z,91921.03
2022-11-28T05:05:50.262Z,91917.59
2022-11-28T05:08:18.073Z,91911.88
2022-11-28T05:10:44.847Z,91917.53
2022-11-28T05:13:11.579Z,91927.53
2022-11-28T05:15:38.165Z,91927.59
2022-11-28T05:18:04.989Z,91920.25
2022-11-28T05:20:31.839Z,91931.47
2022-11-28T05:22:58.482Z,91925.47
2022-11-28T05:25:25.190Z,91933.31
2022-11-28T05:27:51.884Z,91926.34
2022-11-28T05:30:18.516Z,91919.22
2022-11-28T05:32:45.133Z,91922.78
2022-11-28T05:35:11.818Z,91924.63
2022-11-28T05:37:38.425Z,91926.44
2022-11-28T05:40:05.925Z,91927.66
2022-11-28T05:42:33.753Z,91923.63
2022-11-28T05:45:00.479Z,91926.63
2022-11-28T05:47:27.158Z,91928.31
2022-11-28T05:49:53.872Z,91920.63
2022-11-28T05:52:20.490Z,91927.03
2022-11-28T05:54:47.132Z,91925.66
2022-11-28T05:57:13.754Z,91927.81
2022-11-28T05:59:40.475Z,91937.22
2022-11-28T06:02:07.467Z,91924.03
2022-11-28T06:04:34.237Z,91923.13
2022-11-28T06:07:00.925Z,91933.56
2022-11-28T06:09:27.622Z,91923.81
2022-11-28T06:11:54.291Z,91926.44
2022-11-28T06:14:21.065Z,91922.47
2022-11-28T06:16:47.690Z,91927.81
2022-11-28T06:19:14.402Z,91919.72
2022-11-28T06:21:41.318Z,91924.63
2022-11-28T06:24:09.167Z,91926.03
2022-11-28T06:26:35.808Z,91921.84
2022-11-28T06:29:03.577Z,91929.78
2022-11-28T06:31:30.526Z,91920.63
2022-11-28T06:33:58.041Z,91921.59
2022-11-28T06:36:26.163Z,91920.72
2022-11-28T06:38:53.320Z,91917.91
2022-11-28T06:41:20.177Z,91921.63
2022-11-28T06:43:46.845Z,91914.09
2022-11-28T06:46:16.186Z,91913.97
2022-11-28T06:48:44.207Z,91918.59
2022-11-28T06:51:11.013Z,91917.47
2022-11-28T06:53:37.644Z,91920.66
2022-11-28T06:56:08.645Z,91917.88
2022-11-28T06:58:35.918Z,91909.38
2022-11-28T07:01:07.252Z,91916.72
2022-11-28T07:03:34.023Z,91910.34
2022-11-28T07:06:04.024Z,91919.56
2022-11-28T07:08:31.391Z,91909.66
2022-11-28T07:10:58.469Z,91914.16
2022-11-28T07:13:25.205Z,91908.94
2022-11-28T07:15:51.833Z,91907.38
2022-11-28T07:18:18.547Z,91905.84
2022-11-28T07:20:45.282Z,91898.88
2022-11-28T07:23:12.141Z,91895.31
2022-11-28T07:25:38.801Z,91900.94
2022-11-28T07:28:05.567Z,91894.66
2022-11-28T07:30:32.248Z,91896.53
2022-11-28T07:32:58.972Z,91908.72
2022-11-28T07:35:25.716Z,91901.94
2022-11-28T07:37:52.433Z,91905.66
2022-11-28T07:40:20.647Z,91903.09
2022-11-28T07:42:48.831Z,91896.03
2022-11-28T07:45:15.601Z,91900.47
2022-11-28T07:47:42.222Z,91892.81
2022-11-28T07:50:09.227Z,91900.59
2022-11-28T07:52:35.958Z,91903.34
2022-11-28T07:55:02.651Z,91908.16
2022-11-28T07:57:30.724Z,91903.41
2022-11-28T07:59:57.386Z,91899.03
2022-11-28T08:02:24.113Z,91892.03
2022-11-28T08:04:55.076Z,91902.63
2022-11-28T08:07:22.185Z,91892.72
2022-11-28T08:09:48.836Z,91895.63
2022-11-28T08:12:15.492Z,91901.69
2022-11-28T08:14:42.634Z,91897.44
2022-11-28T08:17:09.711Z,91908.41
2022-11-28T08:19:36.330Z,91903.19
2022-11-28T08:22:02.991Z,91907.38
2022-11-28T08:24:29.705Z,91904.88
2022-11-28T08:26:57.171Z,91904.38
2022-11-28T08:29:23.906Z,91902.28
2022-11-28T08:31:50.604Z,91889.47
2022-11-28T08:34:18.343Z,91897.06
2022-11-28T08:36:45.073Z,91885.56
2022-11-28T08:39:27.555Z,91897.13
2022-11-28T08:41:57.385Z,91896.28
2022-11-28T08:44:24.397Z,91887.47
2022-11-28T08:46:51.077Z,91883.22
2022-11-28T08:49:17.874Z,91889.06
2022-11-28T08:51:44.599Z,91888.13
2022-11-28T08:54:11.340Z,91877.75
2022-11-28T08:56:37.962Z,91873.44
2022-11-28T08:59:04.728Z,91873.16
2022-11-28T09:01:32.114Z,91869.38
2022-11-28T09:03:58.846Z,91870.16
2022-11-28T09:06:25.559Z,91866.31
2022-11-28T09:08:52.487Z,91870.06
2022-11-28T09:11:20.193Z,91866.38
2022-11-28T09:13:46.965Z,91862.63
2022-11-28T09:16:14.395Z,91862.66
2022-11-28T09:18:41.202Z,91856.47
2022-11-28T09:21:11.654Z,91853.88
2022-11-28T09:23:38.903Z,91851.59
2022-11-28T09:26:09.890Z,91839.31
2022-11-28T09:28:36.629Z,91842.94
2022-11-28T09:31:04.244Z,91842.47
2022-11-28T09:33:31.041Z,91838.00
2022-11-28T09:35:58.382Z,91835.69
2022-11-28T09:38:25.764Z,91828.44
2022-11-28T09:40:52.437Z,91823.72
2022-11-28T09:43:23.952Z,91820.00
2022-11-28T09:45:51.064Z,91819.03
2022-11-28T09:48:24.109Z,91815.13
2022-11-28T09:50:53.137Z,91813.09
2022-11-28T09:53:30.813Z,91807.94
2022-11-28T09:56:04.474Z,91799.63
2022-11-28T09:58:48.331Z,91805.09
2022-11-28T10:01:18.183Z,91809.25
2022-11-28T10:04:26.188Z,91798.06
2022-11-28T10:07:04.713Z,91793.94
2022-11-28T10:10:00.885Z,91792.59
2022-11-28T10:12:33.189Z,91787.66
2022-11-28T10:15:08.969Z,91786.13
2022-11-28T10:17:44.381Z,91781.66
2022-11-28T10:20:22.793Z,91786.84
2022-11-28T10:23:15.817Z,91773.84
2022-11-28T10:25:47.108Z,91771.75
2022-11-28T10:28:19.776Z,91773.34
2022-11-28T10:31:06.087Z,91781.66
2022-11-28T10:33:53.908Z,91791.03
2022-11-28T10:36:26.691Z,91789.41
2022-11-28T10:38:53.546Z,91779.03
2022-11-28T10:41:35.109Z,91788.44
2022-11-28T10:44:21.592Z,91790.47
2022-11-28T10:46:57.681Z,91793.31
2022-11-28T10:49:33.646Z,91793.84
2022-11-28T10:52:23.948Z,91791.00
2022-11-28T10:55:06.209Z,91790.47
2022-11-28T10:58:06.147Z,91783.19
2022-11-28T11:00:32.944Z,91772.81
2022-11-28T11:03:02.277Z,91767.84
2022-11-28T11:05:33.618Z,91755.66
2022-11-28T11:08:09.015Z,91746.38
2022-11-28T11:10:44.645Z,91751.81
2022-11-28T11:13:25.701Z,91745.81
2022-11-28T11:16:10.468Z,91743.22
2022-11-28T11:18:50.428Z,91745.50
2022-11-28T11:21:20.960Z,91745.22
2022-11-28T11:23:48.253Z,91737.97
2022-11-28T11:26:47.899Z,91743.22
2022-11-28T11:29:45.075Z,91736.50
2022-11-28T11:32:25.315Z,91737.81
2022-11-28T11:34:52.034Z,91734.94
2022-11-28T11:37:21.219Z,91726.59
2022-11-28T11:39:51.643Z,91729.22
2022-11-28T11:42:29.103Z,91728.16
2022-11-28T11:44:55.953Z,91728.19
2022-11-28T11:47:41.374Z,91728.69
2022-11-28T11:50:18.698Z,91733.06
2022-11-28T11:53:07.406Z,91731.25
2022-11-28T11:55:48.210Z,91731.50
2022-11-28T11:58:17.865Z,91727.28
2022-11-28T12:00:45.617Z,91741.50
2022-11-28T12:03:15.381Z,91732.97
2022-11-28T12:06:14.090Z,91724.94
2022-11-28T12:09:00.206Z,91727.50
2022-11-28T12:11:29.779Z,91731.41
2022-11-28T12:13:57.731Z,91731.50
2022-11-28T12:16:33.496Z,91721.31
2022-11-28T12:19:21.557Z,91723.69
2022-11-28T12:21:51.032Z,91724.75
2022-11-28T12:24:21.076Z,91722.44
2022-11-28T12:26:52.704Z,91717.75
2022-11-28T12:29:44.440Z,91714.09
2022-11-28T12:32:17.885Z,91720.88
2022-11-28T12:35:04.740Z,91723.94
2022-11-28T12:38:09.735Z,91728.13
2022-11-28T12:40:44.585Z,91719.56
2022-11-28T12:43:17.428Z,91726.03
2022-11-28T12:46:00.242Z,91728.38
2022-11-28T12:48:38.890Z,91730.44
2022-11-28T12:51:12.589Z,91737.22
2022-11-28T12:53:54.358Z,91731.50
2022-11-28T12:56:30.927Z,91732.28
2022-11-28T12:59:14.427Z,91736.91
2022-11-28T13:02:05.238Z,91733.34
2022-11-28T13:04:53.258Z,91736.44
2022-11-28T13:07:54.606Z,91736.41
2022-11-28T13:10:27.066Z,91740.81
2022-11-28T13:13:21.498Z,91732.78
2022-11-28T13:16:26.421Z,91743.19
2022-11-28T13:18:54.070Z,91730.19
2022-11-28T13:21:45.303Z,91732.25
2022-11-28T13:24:31.950Z,91728.91
2022-11-28T13:27:09.817Z,91735.63
2022-11-28T13:30:09.346Z,91731.69
2022-11-28T13:32:50.822Z,91736.16
2022-11-28T13:35:18.242Z,91737.94
2022-11-28T13:40:57.074Z,91737.75
2022-11-28T13:43:33.084Z,91741.63
2022-11-28T13:45:59.873Z,91738.72
2022-11-28T13:51:31.496Z,91742.63
2022-11-28T13:54:17.407Z,91737.47
2022-11-28T13:56:48.763Z,91734.88
2022-11-28T13:59:18.189Z,91747.81
2022-11-28T14:01:46.212Z,91742.63
2022-11-28T14:04:16.658Z,91739.53
2022-11-28T14:06:47.541Z,91749.16
2022-11-28T14:09:17.319Z,91748.31
2022-11-28T14:11:59.814Z,91748.88
2022-11-28T14:15:02.981Z,91739.81
2022-11-28T14:17:42.088Z,91739.00
2022-11-28T14:20:42.802Z,91742.63
2022-11-28T14:23:24.329Z,91748.09
2022-11-28T14:25:51.666Z,91745.00
2022-11-28T14:28:29.836Z,91747.13
2022-11-28T14:31:21.958Z,91744.72
2022-11-28T14:33:48.697Z,91749.44
2022-11-28T14:36:34.394Z,91749.41
2022-11-28T14:39:33.861Z,91743.19
2022-11-28T14:42:06.572Z,91744.75
2022-11-28T14:44:52.941Z,91753.28
2022-11-28T14:47:35.049Z,91758.16
2022-11-28T14:50:04.723Z,91755.91
2022-11-28T14:52:39.783Z,91750.94
2022-11-28T14:55:09.930Z,91756.88
2022-11-28T14:58:00.389Z,91756.59
2022-11-28T15:00:30.475Z,91761.59
2022-11-28T15:03:12.725Z,91761.78
2022-11-28T15:05:46.452Z,91753.50
2022-11-28T15:08:34.441Z,91754.84
2022-11-28T15:11:19.316Z,91754.00
2022-11-28T15:13:52.170Z,91748.50
2022-11-28T15:16:19.272Z,91746.47
2022-11-28T15:18:51.306Z,91753.47
2022-11-28T15:21:18.797Z,91756.31
2022-11-28T15:23:46.933Z,91750.91
2022-11-28T15:26:43.026Z,91757.84
2022-11-28T15:29:22.484Z,91754.56
2022-11-28T15:31:51.007Z,91745.16
2022-11-28T15:34:31.405Z,91744.56
2022-11-28T15:37:03.670Z,91743.69
2022-11-28T15:39:35.328Z,91742.53
2022-11-28T15:42:03.774Z,91734.72
2022-11-28T15:44:30.457Z,91742.56
2022-11-28T15:46:57.105Z,91741.53
2022-11-28T15:49:34.125Z,91746.69
2022-11-28T15:52:04.393Z,91748.53
2022-11-28T15:54:32.107Z,91746.78
2022-11-28T15:56:59.813Z,91744.16
2022-11-28T15:59:26.422Z,91747.28
2022-11-28T16:01:59.096Z,91747.75
2022-11-28T16:04:26.097Z,91746.16
2022-11-28T16:06:53.401Z,91747.22
2022-11-28T16:09:20.071Z,91743.63
2022-11-28T16:11:48.410Z,91743.13
2022-11-28T16:14:17.688Z,91744.56
2022-11-28T16:16:44.443Z,91743.81
2022-11-28T16:19:28.969Z,91733.97
2022-11-28T16:21:57.376Z,91742.03
2022-11-28T16:24:42.093Z,91740.25
2022-11-28T16:27:37.600Z,91738.44
2022-11-28T16:30:32.849Z,91732.16
2022-11-28T16:33:00.008Z,91736.09
2022-11-28T16:35:32.577Z,91736.63
2022-11-28T16:38:24.175Z,91735.34
2022-11-28T16:40:51.647Z,91722.84
2022-11-28T16:43:24.627Z,91723.91
2022-11-28T16:46:01.771Z,91721.31
2022-11-28T16:48:30.177Z,91726.97
2022-11-28T16:51:02.905Z,91721.81
2022-11-28T16:53:41.385Z,91732.66
2022-11-28T16:56:29.808Z,91723.59
2022-11-28T16:59:19.130Z,91722.25
2022-11-28T17:01:47.127Z,91724.16
2022-11-28T17:04:27.604Z,91717.91
2022-11-28T17:06:55.929Z,91723.25
2022-11-28T17:09:22.681Z,91726.97
2022-11-28T17:12:12.174Z,91730.88
2022-11-28T17:14:39.227Z,91737.34
2022-11-28T17:17:13.728Z,91735.22
2022-11-28T17:19:40.517Z,91724.59
2022-11-28T17:22:07.728Z,91718.88
2022-11-28T17:24:34.873Z,91712.38
2022-11-28T17:27:01.546Z,91720.16
2022-11-28T17:29:29.486Z,91711.84
2022-11-28T17:31:58.791Z,91720.97
2022-11-28T17:34:26.962Z,91721.22
2022-11-28T17:36:53.732Z,91713.44
2022-11-28T17:39:20.498Z,91723.59
2022-11-28T17:41:47.398Z,91713.94
2022-11-28T17:44:25.360Z,91716.03
2022-11-28T17:46:53.497Z,91710.84
2022-11-28T17:49:20.331Z,91715.78
2022-11-28T17:51:46.935Z,91705.69
2022-11-28T17:54:17.849Z,91697.63
2022-11-28T17:56:45.186Z,91700.50
2022-11-28T17:59:12.126Z,91697.59
2022-11-28T18:01:38.896Z,91700.94
2022-11-28T18:04:05.580Z,91701.47
2022-11-28T18:06:32.230Z,91704.59
2022-11-28T18:08:59.653Z,91700.88
2022-11-28T18:11:27.028Z,91695.72
2022-11-28T18:13:53.805Z,91697.28
2022-11-28T18:16:22.734Z,91703.53
2022-11-28T18:18:49.597Z,91699.97
2022-11-28T18:21:16.463Z,91692.69
2022-11-28T18:23:44.792Z,91695.25
2022-11-28T18:26:13.312Z,91695.03
2022-11-28T18:28:40.277Z,91692.19
2022-11-28T18:31:10.643Z,91694.00
2022-11-28T18:33:38.050Z,91692.19
2022-11-28T18:36:18.085Z,91684.13
2022-11-28T18:38:45.188Z,91685.44
2022-11-28T18:41:12.540Z,91689.56
2022-11-28T18:43:39.185Z,91693.16
2022-11-28T18:46:10.284Z,91693.16
2022-11-28T18:48:37.398Z,91695.22
2022-11-28T18:51:14.427Z,91690.03
2022-11-28T18:53:41.064Z,91685.91
2022-11-28T18:56:08.037Z,91691.59
2022-11-28T18:58:39.037Z,91681.75
2022-11-28T19:01:13.153Z,91678.69
2022-11-28T19:03:39.853Z,91682.34
2022-11-28T19:06:07.313Z,91687.97
2022-11-28T19:08:34.276Z,91696.81
2022-11-28T19:11:11.243Z,91690.81
2022-11-28T19:13:38.219Z,91679.19
2022-11-28T19:16:09.259Z,91683.81
2022-11-28T19:18:36.111Z,91683.81
2022-11-28T19:21:19.356Z,91679.19
2022-11-28T19:23:48.767Z,91682.84
2022-11-28T19:26:17.415Z,91676.59
2022-11-28T19:28:44.117Z,91687.19
2022-11-28T19:31:21.628Z,91682.50
2022-11-28T19:34:00.557Z,91684.41
2022-11-28T19:36:28.379Z,91680.97
2022-11-28T19:38:54.979Z,91686.44
2022-11-28T19:41:22.282Z,91683.25
2022-11-28T19:43:48.886Z,91686.34
2022-11-28T19:46:15.647Z,91688.94
2022-11-28T19:48:42.469Z,91684.03
2022-11-28T19:51:09.902Z,91688.16
2022-11-28T19:53:40.395Z,91691.81
2022-11-28T19:56:09.047Z,91694.19
2022-11-28T19:58:35.953Z,91699.38
2022-11-28T20:01:10.410Z,91701.72
2022-11-28T20:03:37.500Z,91693.66
2022-11-28T20:06:11.608Z,91694.72
2022-11-28T20:08:38.833Z,91696.84
2022-11-28T20:11:13.613Z,91699.16
2022-11-28T20:13:41.105Z,91699.84
2022-11-28T20:16:08.986Z,91697.75
2022-11-28T20:18:40.190Z,91702.97
2022-11-28T20:21:14.220Z,91699.84
2022-11-28T20:23:41.044Z,91698.06
2022-11-28T20:26:07.924Z,91697.31
2022-11-28T20:28:35.577Z,91698.63
2022-11-28T20:31:02.390Z,91694.72
2022-11-28T20:33:29.144Z,91696.25
2022-11-28T20:36:09.643Z,91700.66
2022-11-28T20:38:36.309Z,91703.25
2022-11-28T20:41:03.776Z,91703.00
2022-11-28T20:43:31.310Z,91703.84
2022-11-28T20:46:05.303Z,91706.13
2022-11-28T20:48:31.834Z,91699.91
2022-11-28T20:50:58.422Z,91706.91
2022-11-28T20:53:27.075Z,91704.03
2022-11-28T20:56:05.746Z,91703.84
2022-11-28T20:58:32.410Z,91703.06
2022-11-28T21:00:59.065Z,91707.44
2022-11-28T21:03:25.974Z,91702.50
2022-11-28T21:05:59.389Z,91702.47
2022-11-28T21:08:30.429Z,91699.94
2022-11-28T21:10:57.261Z,91699.84
2022-11-28T21:13:23.901Z,91703.47
2022-11-28T21:15:50.639Z,91699.94
2022-11-28T21:18:17.356Z,91698.13
2022-11-28T21:20:45.541Z,91707.22
2022-11-28T21:23:13.238Z,91702.47
2022-11-28T21:25:40.180Z,91693.66
2022-11-28T21:28:09.125Z,91694.47
2022-11-28T21:30:43.498Z,91698.84
2022-11-28T21:33:11.381Z,91701.38
2022-11-28T21:35:39.049Z,91705.31
2022-11-28T21:38:06.124Z,91697.25
2022-11-28T21:40:32.894Z,91695.88
2022-11-28T21:42:59.526Z,91698.59
2022-11-28T21:45:26.215Z,91704.22
2022-11-28T21:47:52.882Z,91704.97
2022-11-28T21:50:19.644Z,91700.16
2022-11-28T21:52:46.293Z,91706.13
2022-11-28T21:55:12.854Z,91698.44
2022-11-28T21:57:42.198Z,91694.59
2022-11-28T22:00:25.641Z,91705.78
2022-11-28T22:03:32.235Z,91698.00
2022-11-28T22:05:43.645Z,91690.44
2022-11-28T22:08:10.829Z,91684.25
2022-11-28T22:10:37.994Z,91687.97
2022-11-28T22:13:04.642Z,91692.06
2022-11-28T22:15:31.266Z,91694.13
2022-11-28T22:17:57.871Z,91694.66
2022-11-28T22:20:24.543Z,91689.72
2022-11-28T22:22:51.198Z,91682.16
2022-11-28T22:25:17.781Z,91685.78
2022-11-28T22:27:44.440Z,91680.28
2022-11-28T22:30:11.555Z,91676.22
2022-11-28T22:32:38.206Z,91674.44
2022-11-28T22:35:07.137Z,91675.69
2022-11-28T22:37:33.781Z,91671.81
2022-11-28T22:40:00.339Z,91657.88
2022-11-28T22:42:27.062Z,91673.94
2022-11-28T22:44:53.712Z,91658.88
2022-11-28T22:47:20.409Z,91658.31
2022-11-28T22:49:47.041Z,91664.53
2022-11-28T22:52:13.659Z,91662.72
2022-11-28T22:54:40.338Z,91664.56
2022-11-28T22:57:06.951Z,91662.75
2022-11-28T22:59:35.237Z,91665.13
2022-11-28T23:02:02.883Z,91656.56
2022-11-28T23:04:29.669Z,91660.38
2022-11-28T23:06:56.401Z,91646.66
2022-11-28T23:09:23.140Z,91645.31
2022-11-28T23:11:49.785Z,91641.16
2022-11-28T23:14:16.469Z,91645.09
2022-11-28T23:16:43.475Z,91643.28
2022-11-28T23:19:14.397Z,91648.97
2022-11-28T23:21:42.193Z,91643.28
2022-11-28T23:24:12.036Z,91626.16
2022-11-28T23:26:38.735Z,91629.59
2022-11-28T23:29:05.789Z,91628.31
2022-11-28T23:31:33.601Z,91619.47
2022-11-28T23:34:00.448Z,91619.97
2022-11-28T23:36:28.943Z,91616.88
2022-11-28T23:39:00.257Z,91626.72
2022-11-28T23:41:27.245Z,91619.69
2022-11-28T23:43:53.938Z,91611.66
2022-11-28T23:46:21.177Z,91617.84
2022-11-28T23:48:47.949Z,91625.13
2022-11-28T23:51:15.586Z,91625.91
2022-11-28T23:53:42.192Z,91617.88
2022-11-28T23:56:11.479Z,91622.03
2022-11-28T23:58:38.313Z,91616.84
